createdAt,value
2019-03-23T00:01:28.533Z,10
2019-03-23T00:11:27.367Z,9
2019-03-23T00:21:27.477Z,9
2019-03-23T00:31:27.010Z,9
2019-03-23T00:41:29.122Z,9
2019-03-23T00:51:28.490Z,9
2019-03-23T01:01:27.365Z,9
2019-03-23T01:11:27.010Z,9
2019-03-23T01:21:27.836Z,8
2019-03-23T01:31:27.940Z,8
2019-03-23T01:41:27.530Z,8
2019-03-23T01:51:27.049Z,8
2019-03-23T02:01:27.949Z,8
2019-03-23T02:11:27.613Z,8
2019-03-23T02:21:27.711Z,8
2019-03-23T02:31:27.976Z,8
2019-03-23T02:41:27.792Z,8
2019-03-23T02:51:27.990Z,8
2019-03-23T03:01:27.888Z,8
2019-03-23T03:11:28.936Z,8
2019-03-23T03:21:27.940Z,8
2019-03-23T03:31:27.542Z,8
2019-03-23T03:41:27.189Z,8
2019-03-23T03:51:29.328Z,8
2019-03-23T04:01:27.011Z,8
2019-03-23T04:11:28.138Z,8
2019-03-23T04:21:27.031Z,8
2019-03-23T04:31:28.431Z,8
2019-03-23T04:41:28.135Z,8
2019-03-23T04:51:28.242Z,8
2019-03-23T05:01:28.207Z,8
2019-03-23T05:11:27.933Z,8
2019-03-23T05:21:27.741Z,8
2019-03-23T05:31:27.494Z,8
2019-03-23T05:41:28.128Z,8
2019-03-23T05:51:28.238Z,8
2019-03-23T06:01:29.533Z,8
2019-03-23T06:11:27.077Z,8
2019-03-23T06:21:27.923Z,8
2019-03-23T06:31:27.891Z,8
2019-03-23T06:41:27.805Z,8
2019-03-23T06:51:27.561Z,8
2019-03-23T07:01:27.407Z,8
2019-03-23T07:11:27.028Z,8
2019-03-23T07:21:28.401Z,9
2019-03-23T07:31:27.008Z,9
2019-03-23T07:41:28.467Z,9
2019-03-23T07:51:29.068Z,10
2019-03-23T08:01:28.021Z,10
2019-03-23T08:11:27.796Z,10
2019-03-23T08:21:27.975Z,10
2019-03-23T08:31:28.505Z,10
2019-03-23T08:41:28.705Z,10
2019-03-23T08:51:27.320Z,10
2019-03-23T09:01:27.854Z,10
2019-03-23T09:11:28.546Z,10
2019-03-23T09:21:27.494Z,10
2019-03-23T09:31:27.559Z,11
2019-03-23T09:41:27.103Z,11
2019-03-23T09:51:30.572Z,11
2019-03-23T10:01:27.257Z,11
2019-03-23T10:11:27.897Z,11
2019-03-23T10:21:28.956Z,12
2019-03-23T10:31:27.945Z,12
2019-03-23T10:41:27.845Z,12
2019-03-23T10:51:27.744Z,13
2019-03-23T11:01:27.796Z,13
2019-03-23T11:11:28.359Z,13
2019-03-23T11:21:28.266Z,14
2019-03-23T11:31:30.162Z,14
2019-03-23T11:41:28.106Z,14
2019-03-23T11:51:27.110Z,15
2019-03-23T12:01:28.096Z,15
2019-03-23T12:11:27.876Z,15
2019-03-23T12:21:26.793Z,16
2019-03-23T12:31:28.687Z,16
2019-03-23T12:41:26.354Z,16
2019-03-23T12:51:27.069Z,17
2019-03-23T13:01:27.775Z,17
2019-03-23T13:11:36.864Z,17
2019-03-23T13:21:26.799Z,17
2019-03-23T13:31:27.898Z,17
2019-03-23T13:41:26.621Z,17
2019-03-23T13:51:26.502Z,17
2019-03-23T14:01:27.728Z,17
2019-03-23T14:11:27.342Z,18
2019-03-23T14:21:27.874Z,18
2019-03-23T14:31:28.662Z,18
2019-03-23T14:41:27.933Z,17
2019-03-23T14:51:28.345Z,18
2019-03-23T15:01:27.997Z,19
2019-03-23T15:11:28.132Z,19
2019-03-23T15:21:26.399Z,20
2019-03-23T15:31:26.685Z,21
2019-03-23T15:41:27.127Z,21
2019-03-23T15:51:27.286Z,22
2019-03-23T16:01:27.733Z,21
2019-03-23T16:11:26.620Z,21
2019-03-23T16:21:29.431Z,20
2019-03-23T16:31:26.476Z,19
2019-03-23T16:41:27.992Z,19
2019-03-23T16:51:33.602Z,18
2019-03-23T17:01:26.912Z,18
2019-03-23T17:11:27.982Z,17
2019-03-23T17:21:27.944Z,18
2019-03-23T17:31:27.002Z,17
2019-03-23T17:41:27.943Z,17
2019-03-23T17:51:28.051Z,16
2019-03-23T18:01:27.015Z,16
2019-03-23T18:11:28.301Z,16
2019-03-23T18:21:27.190Z,16
2019-03-23T18:31:28.167Z,16
2019-03-23T18:41:27.905Z,16
2019-03-23T18:51:28.179Z,15
2019-03-23T19:01:27.469Z,15
2019-03-23T19:11:26.542Z,15
2019-03-23T19:21:29.584Z,15
2019-03-23T19:31:26.494Z,15
2019-03-23T19:41:27.195Z,14
2019-03-23T19:51:27.408Z,14
2019-03-23T20:01:27.449Z,14
2019-03-23T20:11:27.396Z,14
2019-03-23T20:21:27.729Z,14
2019-03-23T20:31:27.639Z,14
2019-03-23T20:41:27.539Z,14
2019-03-23T20:51:27.562Z,13
2019-03-23T21:01:28.181Z,13
2019-03-23T21:11:28.746Z,12
2019-03-23T21:21:28.071Z,13
2019-03-23T21:31:38.241Z,13
2019-03-23T21:41:27.885Z,13
2019-03-23T21:51:27.766Z,13
2019-03-23T22:01:28.015Z,12
2019-03-23T22:11:30.540Z,12
2019-03-23T22:21:27.278Z,12
2019-03-23T22:31:29.479Z,12
2019-03-23T22:41:27.703Z,12
2019-03-23T22:51:27.510Z,12
2019-03-23T23:01:28.075Z,12
2019-03-23T23:11:28.231Z,12
2019-03-23T23:21:28.830Z,12
2019-03-23T23:31:28.694Z,11
2019-03-23T23:41:28.693Z,12
2019-03-23T23:51:27.552Z,11
